Joao Paulo II Airport Ponta Delgada PT
ICAO: LPPD
IATA: PDL
Category: Large
Scheduled Services: Yes

Elevation: 259 ft
TransAlt. 6000 ft.

Airport Communications:
APP:119.4
TWR:118.3

LPPD Zoom In..

If you have problems with the map follow the link
https://www.worldairports.se/pages/airport.php?
ICAO=LPPD

Runways:

(A) RW 12 length 7621 ft width 148 ft
---- / hdg 121

(B) RW 30 length 7621 ft width 148 ft
ILS 109.50 / hdg 301

Location; LPPD
Day. 18 / Time. 21.30 Zulu
* QNH: 1029
* Temperature: 16° c. 60.8°f.
* Wind from: 260° Speed 11 kn.
Dewpoint: 14° c.
Visibility: 10 km or more.
Clouds: Few 700 ft.
Clouds: Scattered 1200 ft.

LPPD 182130Z 26011KT 9999 FEW007 SCT012 16/14 Q1029


Wind From 260°
Speed 11 kn.

 
 
jpsmedia.com for Web Design worldairports.se 2019   terms of use